sensor_id;sensor_type;location;lat;lon;timestamp;P1;durP1;ratioP1;P2;durP2;ratioP2
40945;SDS011;55635;50.264;11.918;2023-02-28T00:00:20;5.30;;;3.80;;
40945;SDS011;55635;50.264;11.918;2023-02-28T00:03:02;6.03;;;4.68;;
40945;SDS011;55635;50.264;11.918;2023-02-28T00:05:43;6.80;;;4.55;;
40945;SDS011;55635;50.264;11.918;2023-02-28T00:08:24;10.02;;;5.20;;
40945;SDS011;55635;50.264;11.918;2023-02-28T00:11:08;8.30;;;5.03;;
40945;SDS011;55635;50.264;11.918;2023-02-28T00:13:51;8.20;;;5.10;;
40945;SDS011;55635;50.264;11.918;2023-02-28T00:16:32;7.45;;;5.00;;
40945;SDS011;55635;50.264;11.918;2023-02-28T00:19:13;7.43;;;4.57;;
40945;SDS011;55635;50.264;11.918;2023-02-28T00:21:54;7.97;;;5.03;;
40945;SDS011;55635;50.264;11.918;2023-02-28T00:24:36;6.35;;;4.20;;
40945;SDS011;55635;50.264;11.918;2023-02-28T00:27:17;8.40;;;4.55;;
40945;SDS011;55635;50.264;11.918;2023-02-28T00:30:00;9.68;;;4.60;;
40945;SDS011;55635;50.264;11.918;2023-02-28T00:32:41;7.13;;;4.10;;
40945;SDS011;55635;50.264;11.918;2023-02-28T00:35:22;4.57;;;3.95;;
40945;SDS011;55635;50.264;11.918;2023-02-28T00:38:04;7.32;;;4.45;;
40945;SDS011;55635;50.264;11.918;2023-02-28T00:40:45;5.72;;;4.20;;
40945;SDS011;55635;50.264;11.918;2023-02-28T00:43:25;8.00;;;4.47;;
40945;SDS011;55635;50.264;11.918;2023-02-28T00:46:07;4.80;;;4.22;;
40945;SDS011;55635;50.264;11.918;2023-02-28T00:48:48;9.48;;;4.82;;
40945;SDS011;55635;50.264;11.918;2023-02-28T00:51:29;5.80;;;4.30;;
40945;SDS011;55635;50.264;11.918;2023-02-28T00:54:11;5.65;;;4.30;;
40945;SDS011;55635;50.264;11.918;2023-02-28T00:56:52;4.78;;;3.60;;
40945;SDS011;55635;50.264;11.918;2023-02-28T00:59:33;6.55;;;4.13;;
40945;SDS011;55635;50.264;11.918;2023-02-28T01:02:15;5.20;;;4.53;;
40945;SDS011;55635;50.264;11.918;2023-02-28T01:04:56;5.70;;;4.18;;
40945;SDS011;55635;50.264;11.918;2023-02-28T01:07:37;28.35;;;13.35;;
40945;SDS011;55635;50.264;11.918;2023-02-28T01:10:18;6.03;;;4.50;;
40945;SDS011;55635;50.264;11.918;2023-02-28T01:13:00;11.85;;;5.32;;
40945;SDS011;55635;50.264;11.918;2023-02-28T01:15:46;5.90;;;4.60;;
40945;SDS011;55635;50.264;11.918;2023-02-28T01:18:33;6.72;;;4.82;;
40945;SDS011;55635;50.264;11.918;2023-02-28T01:21:15;7.20;;;4.43;;
40945;SDS011;55635;50.264;11.918;2023-02-28T01:23:58;10.63;;;5.15;;
40945;SDS011;55635;50.264;11.918;2023-02-28T01:26:39;7.68;;;4.88;;
40945;SDS011;55635;50.264;11.918;2023-02-28T01:29:21;6.57;;;4.82;;
40945;SDS011;55635;50.264;11.918;2023-02-28T01:32:02;7.43;;;4.90;;
40945;SDS011;55635;50.264;11.918;2023-02-28T01:34:43;7.65;;;4.93;;
40945;SDS011;55635;50.264;11.918;2023-02-28T01:37:25;6.03;;;4.70;;
40945;SDS011;55635;50.264;11.918;2023-02-28T01:40:07;6.90;;;4.50;;
40945;SDS011;55635;50.264;11.918;2023-02-28T01:42:49;4.95;;;4.30;;
40945;SDS011;55635;50.264;11.918;2023-02-28T01:45:30;10.30;;;4.95;;
40945;SDS011;55635;50.264;11.918;2023-02-28T01:48:16;8.20;;;4.88;;
40945;SDS011;55635;50.264;11.918;2023-02-28T01:51:01;6.43;;;4.63;;
40945;SDS011;55635;50.264;11.918;2023-02-28T01:53:51;7.70;;;4.63;;
40945;SDS011;55635;50.264;11.918;2023-02-28T01:56:40;5.75;;;4.50;;
40945;SDS011;55635;50.264;11.918;2023-02-28T01:59:37;6.65;;;4.15;;
40945;SDS011;55635;50.264;11.918;2023-02-28T02:02:31;6.97;;;4.43;;
40945;SDS011;55635;50.264;11.918;2023-02-28T02:05:17;5.80;;;4.47;;
40945;SDS011;55635;50.264;11.918;2023-02-28T02:08:03;7.13;;;4.20;;
40945;SDS011;55635;50.264;11.918;2023-02-28T02:10:58;6.95;;;4.88;;
40945;SDS011;55635;50.264;11.918;2023-02-28T02:41:22;8.63;;;5.85;;
40945;SDS011;55635;50.264;11.918;2023-02-28T02:47:15;8.85;;;5.07;;
40945;SDS011;55635;50.264;11.918;2023-02-28T02:50:01;7.68;;;5.22;;
40945;SDS011;55635;50.264;11.918;2023-02-28T02:52:49;7.80;;;5.18;;
40945;SDS011;55635;50.264;11.918;2023-02-28T02:55:39;9.07;;;5.10;;
40945;SDS011;55635;50.264;11.918;2023-02-28T02:58:25;9.25;;;6.00;;
40945;SDS011;55635;50.264;11.918;2023-02-28T03:01:12;8.02;;;5.35;;
40945;SDS011;55635;50.264;11.918;2023-02-28T03:04:10;9.27;;;5.35;;
40945;SDS011;55635;50.264;11.918;2023-02-28T03:06:56;7.97;;;5.65;;
40945;SDS011;55635;50.264;11.918;2023-02-28T03:09:38;8.55;;;5.53;;
40945;SDS011;55635;50.264;11.918;2023-02-28T03:12:20;8.07;;;5.43;;
40945;SDS011;55635;50.264;11.918;2023-02-28T03:15:27;10.25;;;5.70;;
40945;SDS011;55635;50.264;11.918;2023-02-28T03:28:02;9.68;;;5.97;;
40945;SDS011;55635;50.264;11.918;2023-02-28T03:31:00;9.23;;;5.85;;
40945;SDS011;55635;50.264;11.918;2023-02-28T03:33:59;8.32;;;5.15;;
40945;SDS011;55635;50.264;11.918;2023-02-28T03:36:47;6.82;;;5.38;;
40945;SDS011;55635;50.264;11.918;2023-02-28T03:39:34;13.45;;;5.65;;
40945;SDS011;55635;50.264;11.918;2023-02-28T03:42:27;7.82;;;5.05;;
40945;SDS011;55635;50.264;11.918;2023-02-28T03:45:13;8.55;;;5.80;;
40945;SDS011;55635;50.264;11.918;2023-02-28T03:48:06;8.50;;;5.00;;
40945;SDS011;55635;50.264;11.918;2023-02-28T03:51:40;9.48;;;5.45;;
40945;SDS011;55635;50.264;11.918;2023-02-28T03:54:29;7.20;;;5.80;;
40945;SDS011;55635;50.264;11.918;2023-02-28T03:57:18;9.95;;;5.75;;
40945;SDS011;55635;50.264;11.918;2023-02-28T04:00:37;8.00;;;5.82;;
40945;SDS011;55635;50.264;11.918;2023-02-28T04:03:25;6.60;;;5.38;;
40945;SDS011;55635;50.264;11.918;2023-02-28T04:06:07;11.85;;;6.30;;
40945;SDS011;55635;50.264;11.918;2023-02-28T04:08:56;13.27;;;6.53;;
40945;SDS011;55635;50.264;11.918;2023-02-28T04:11:40;9.82;;;5.72;;
40945;SDS011;55635;50.264;11.918;2023-02-28T04:14:28;9.02;;;6.40;;
40945;SDS011;55635;50.264;11.918;2023-02-28T04:17:09;10.98;;;5.97;;
40945;SDS011;55635;50.264;11.918;2023-02-28T04:19:50;11.35;;;6.10;;
40945;SDS011;55635;50.264;11.918;2023-02-28T04:22:31;10.05;;;6.13;;
40945;SDS011;55635;50.264;11.918;2023-02-28T04:25:12;9.07;;;5.95;;
40945;SDS011;55635;50.264;11.918;2023-02-28T04:27:54;9.68;;;6.05;;
40945;SDS011;55635;50.264;11.918;2023-02-28T04:30:35;10.35;;;5.68;;
40945;SDS011;55635;50.264;11.918;2023-02-28T04:33:17;11.30;;;5.82;;
40945;SDS011;55635;50.264;11.918;2023-02-28T04:36:02;9.80;;;5.55;;
40945;SDS011;55635;50.264;11.918;2023-02-28T04:38:48;9.30;;;6.13;;
40945;SDS011;55635;50.264;11.918;2023-02-28T04:41:30;10.23;;;5.47;;
40945;SDS011;55635;50.264;11.918;2023-02-28T04:44:11;11.13;;;6.03;;
40945;SDS011;55635;50.264;11.918;2023-02-28T04:46:53;8.77;;;5.82;;
40945;SDS011;55635;50.264;11.918;2023-02-28T04:49:34;8.88;;;5.53;;
40945;SDS011;55635;50.264;11.918;2023-02-28T04:52:15;8.77;;;6.10;;
40945;SDS011;55635;50.264;11.918;2023-02-28T04:54:56;11.20;;;5.28;;
40945;SDS011;55635;50.264;11.918;2023-02-28T04:57:37;10.02;;;6.20;;
40945;SDS011;55635;50.264;11.918;2023-02-28T05:00:18;10.13;;;6.18;;
40945;SDS011;55635;50.264;11.918;2023-02-28T05:03:00;10.48;;;6.55;;
40945;SDS011;55635;50.264;11.918;2023-02-28T05:05:41;10.02;;;5.95;;
40945;SDS011;55635;50.264;11.918;2023-02-28T05:08:22;8.70;;;6.20;;
40945;SDS011;55635;50.264;11.918;2023-02-28T05:11:04;8.93;;;6.07;;
40945;SDS011;55635;50.264;11.918;2023-02-28T05:13:56;10.25;;;6.32;;
40945;SDS011;55635;50.264;11.918;2023-02-28T05:16:37;14.50;;;6.53;;
40945;SDS011;55635;50.264;11.918;2023-02-28T05:19:18;9.98;;;6.15;;
40945;SDS011;55635;50.264;11.918;2023-02-28T05:22:01;10.75;;;7.63;;
40945;SDS011;55635;50.264;11.918;2023-02-28T05:24:42;12.02;;;6.70;;
40945;SDS011;55635;50.264;11.918;2023-02-28T05:27:23;12.05;;;6.40;;
40945;SDS011;55635;50.264;11.918;2023-02-28T05:30:05;12.70;;;6.68;;
40945;SDS011;55635;50.264;11.918;2023-02-28T05:32:50;10.38;;;5.75;;
40945;SDS011;55635;50.264;11.918;2023-02-28T05:35:32;12.00;;;6.55;;
40945;SDS011;55635;50.264;11.918;2023-02-28T05:38:13;11.43;;;6.82;;
40945;SDS011;55635;50.264;11.918;2023-02-28T05:40:54;13.13;;;6.38;;
40945;SDS011;55635;50.264;11.918;2023-02-28T05:43:36;12.68;;;7.10;;
40945;SDS011;55635;50.264;11.918;2023-02-28T05:46:18;8.95;;;6.82;;
40945;SDS011;55635;50.264;11.918;2023-02-28T05:48:59;12.10;;;7.22;;
40945;SDS011;55635;50.264;11.918;2023-02-28T05:51:41;9.35;;;6.00;;
40945;SDS011;55635;50.264;11.918;2023-02-28T05:54:22;11.77;;;7.38;;
40945;SDS011;55635;50.264;11.918;2023-02-28T05:57:03;10.75;;;6.30;;
40945;SDS011;55635;50.264;11.918;2023-02-28T05:59:44;10.60;;;6.80;;
40945;SDS011;55635;50.264;11.918;2023-02-28T06:02:25;13.95;;;7.38;;
40945;SDS011;55635;50.264;11.918;2023-02-28T06:05:12;12.27;;;6.95;;
40945;SDS011;55635;50.264;11.918;2023-02-28T06:07:55;13.60;;;7.30;;
40945;SDS011;55635;50.264;11.918;2023-02-28T06:10:37;12.75;;;6.55;;
40945;SDS011;55635;50.264;11.918;2023-02-28T06:13:18;13.55;;;7.13;;
40945;SDS011;55635;50.264;11.918;2023-02-28T06:16:02;11.30;;;7.05;;
40945;SDS011;55635;50.264;11.918;2023-02-28T06:18:43;14.35;;;7.50;;
40945;SDS011;55635;50.264;11.918;2023-02-28T06:21:24;10.70;;;6.78;;
40945;SDS011;55635;50.264;11.918;2023-02-28T06:24:07;11.18;;;6.97;;
40945;SDS011;55635;50.264;11.918;2023-02-28T06:26:48;11.85;;;6.80;;
40945;SDS011;55635;50.264;11.918;2023-02-28T06:29:33;12.32;;;7.25;;
40945;SDS011;55635;50.264;11.918;2023-02-28T06:32:15;12.50;;;7.05;;
40945;SDS011;55635;50.264;11.918;2023-02-28T06:34:56;13.13;;;7.15;;
40945;SDS011;55635;50.264;11.918;2023-02-28T06:37:38;9.82;;;6.50;;
40945;SDS011;55635;50.264;11.918;2023-02-28T06:40:19;9.75;;;6.93;;
40945;SDS011;55635;50.264;11.918;2023-02-28T06:43:00;14.98;;;8.30;;
40945;SDS011;55635;50.264;11.918;2023-02-28T06:45:42;12.27;;;7.35;;
40945;SDS011;55635;50.264;11.918;2023-02-28T06:48:24;11.70;;;7.82;;
40945;SDS011;55635;50.264;11.918;2023-02-28T06:51:08;14.07;;;8.10;;
40945;SDS011;55635;50.264;11.918;2023-02-28T06:53:53;17.88;;;7.78;;
40945;SDS011;55635;50.264;11.918;2023-02-28T06:56:34;19.10;;;9.43;;
40945;SDS011;55635;50.264;11.918;2023-02-28T06:59:16;21.15;;;8.77;;
40945;SDS011;55635;50.264;11.918;2023-02-28T07:01:57;14.13;;;8.52;;
40945;SDS011;55635;50.264;11.918;2023-02-28T07:04:38;13.70;;;7.70;;
40945;SDS011;55635;50.264;11.918;2023-02-28T07:07:20;14.05;;;8.10;;
40945;SDS011;55635;50.264;11.918;2023-02-28T07:10:01;16.67;;;8.25;;
40945;SDS011;55635;50.264;11.918;2023-02-28T07:12:42;15.75;;;8.82;;
40945;SDS011;55635;50.264;11.918;2023-02-28T07:15:24;13.52;;;8.68;;
40945;SDS011;55635;50.264;11.918;2023-02-28T07:18:05;9.85;;;7.10;;
40945;SDS011;55635;50.264;11.918;2023-02-28T07:20:46;10.27;;;6.90;;
40945;SDS011;55635;50.264;11.918;2023-02-28T07:23:27;12.15;;;7.35;;
40945;SDS011;55635;50.264;11.918;2023-02-28T07:26:12;14.98;;;7.97;;
40945;SDS011;55635;50.264;11.918;2023-02-28T07:28:55;11.10;;;7.22;;
40945;SDS011;55635;50.264;11.918;2023-02-28T07:31:36;15.88;;;9.65;;
40945;SDS011;55635;50.264;11.918;2023-02-28T07:34:17;22.70;;;11.50;;
40945;SDS011;55635;50.264;11.918;2023-02-28T07:36:58;20.45;;;11.00;;
40945;SDS011;55635;50.264;11.918;2023-02-28T07:39:40;21.92;;;12.07;;
40945;SDS011;55635;50.264;11.918;2023-02-28T07:42:23;27.65;;;13.90;;
40945;SDS011;55635;50.264;11.918;2023-02-28T07:45:05;18.83;;;10.05;;
40945;SDS011;55635;50.264;11.918;2023-02-28T07:47:47;12.20;;;8.48;;
40945;SDS011;55635;50.264;11.918;2023-02-28T07:50:28;15.52;;;9.35;;
40945;SDS011;55635;50.264;11.918;2023-02-28T07:53:10;9.85;;;6.75;;
40945;SDS011;55635;50.264;11.918;2023-02-28T07:55:54;8.57;;;6.20;;
40945;SDS011;55635;50.264;11.918;2023-02-28T07:58:36;9.60;;;6.20;;
40945;SDS011;55635;50.264;11.918;2023-02-28T08:01:17;11.23;;;6.03;;
40945;SDS011;55635;50.264;11.918;2023-02-28T08:03:59;6.80;;;6.00;;
40945;SDS011;55635;50.264;11.918;2023-02-28T08:06:40;7.75;;;6.22;;
40945;SDS011;55635;50.264;11.918;2023-02-28T08:09:21;7.47;;;5.72;;
40945;SDS011;55635;50.264;11.918;2023-02-28T08:12:03;9.63;;;5.63;;
40945;SDS011;55635;50.264;11.918;2023-02-28T08:14:44;8.77;;;5.70;;
40945;SDS011;55635;50.264;11.918;2023-02-28T08:17:25;7.85;;;5.97;;
40945;SDS011;55635;50.264;11.918;2023-02-28T08:20:06;9.02;;;5.20;;
40945;SDS011;55635;50.264;11.918;2023-02-28T08:22:49;6.93;;;5.22;;
40945;SDS011;55635;50.264;11.918;2023-02-28T08:25:30;7.03;;;5.25;;
40945;SDS011;55635;50.264;11.918;2023-02-28T08:28:11;8.07;;;5.90;;
40945;SDS011;55635;50.264;11.918;2023-02-28T08:30:51;7.00;;;5.28;;
40945;SDS011;55635;50.264;11.918;2023-02-28T08:33:32;6.05;;;5.03;;
40945;SDS011;55635;50.264;11.918;2023-02-28T08:36:13;8.40;;;5.68;;
40945;SDS011;55635;50.264;11.918;2023-02-28T08:38:56;7.15;;;4.85;;
40945;SDS011;55635;50.264;11.918;2023-02-28T08:41:38;6.35;;;4.65;;
40945;SDS011;55635;50.264;11.918;2023-02-28T08:44:19;5.43;;;4.85;;
40945;SDS011;55635;50.264;11.918;2023-02-28T08:47:00;7.38;;;5.93;;
40945;SDS011;55635;50.264;11.918;2023-02-28T08:49:41;9.73;;;5.07;;
40945;SDS011;55635;50.264;11.918;2023-02-28T08:52:21;8.80;;;5.80;;
40945;SDS011;55635;50.264;11.918;2023-02-28T08:55:02;6.93;;;5.70;;
40945;SDS011;55635;50.264;11.918;2023-02-28T08:57:44;7.20;;;5.07;;
40945;SDS011;55635;50.264;11.918;2023-02-28T09:00:25;9.98;;;5.80;;
40945;SDS011;55635;50.264;11.918;2023-02-28T09:03:07;10.85;;;5.47;;
40945;SDS011;55635;50.264;11.918;2023-02-28T09:05:58;10.05;;;5.43;;
40945;SDS011;55635;50.264;11.918;2023-02-28T09:08:40;9.13;;;6.05;;
40945;SDS011;55635;50.264;11.918;2023-02-28T09:11:22;8.52;;;5.50;;
40945;SDS011;55635;50.264;11.918;2023-02-28T09:14:03;5.25;;;4.60;;
40945;SDS011;55635;50.264;11.918;2023-02-28T09:16:44;8.23;;;5.43;;
40945;SDS011;55635;50.264;11.918;2023-02-28T09:19:24;5.75;;;4.75;;
40945;SDS011;55635;50.264;11.918;2023-02-28T09:22:05;7.82;;;5.22;;
40945;SDS011;55635;50.264;11.918;2023-02-28T09:24:46;6.82;;;4.97;;
40945;SDS011;55635;50.264;11.918;2023-02-28T09:27:27;6.10;;;4.40;;
40945;SDS011;55635;50.264;11.918;2023-02-28T09:30:08;6.40;;;4.55;;
40945;SDS011;55635;50.264;11.918;2023-02-28T09:32:50;7.80;;;5.25;;
40945;SDS011;55635;50.264;11.918;2023-02-28T09:35:32;7.38;;;5.40;;
40945;SDS011;55635;50.264;11.918;2023-02-28T09:38:13;7.57;;;4.95;;
40945;SDS011;55635;50.264;11.918;2023-02-28T09:40:58;8.20;;;5.60;;
40945;SDS011;55635;50.264;11.918;2023-02-28T09:43:44;9.15;;;5.80;;
40945;SDS011;55635;50.264;11.918;2023-02-28T09:46:33;7.70;;;5.22;;
40945;SDS011;55635;50.264;11.918;2023-02-28T09:49:22;7.20;;;5.53;;
40945;SDS011;55635;50.264;11.918;2023-02-28T09:58:41;6.35;;;5.22;;
40945;SDS011;55635;50.264;11.918;2023-02-28T10:01:34;8.02;;;4.85;;
40945;SDS011;55635;50.264;11.918;2023-02-28T10:10:55;6.32;;;4.70;;
40945;SDS011;55635;50.264;11.918;2023-02-28T10:13:58;7.80;;;4.72;;
40945;SDS011;55635;50.264;11.918;2023-02-28T10:16:47;6.38;;;4.55;;
40945;SDS011;55635;50.264;11.918;2023-02-28T10:20:00;6.93;;;4.63;;
40945;SDS011;55635;50.264;11.918;2023-02-28T10:26:20;8.07;;;5.25;;
40945;SDS011;55635;50.264;11.918;2023-02-28T10:29:00;7.22;;;4.60;;
40945;SDS011;55635;50.264;11.918;2023-02-28T10:31:42;7.32;;;4.63;;
40945;SDS011;55635;50.264;11.918;2023-02-28T10:34:23;5.60;;;4.50;;
40945;SDS011;55635;50.264;11.918;2023-02-28T10:37:05;6.93;;;4.25;;
40945;SDS011;55635;50.264;11.918;2023-02-28T10:39:50;5.97;;;4.28;;
40945;SDS011;55635;50.264;11.918;2023-02-28T10:42:31;6.97;;;4.35;;
40945;SDS011;55635;50.264;11.918;2023-02-28T10:45:14;11.02;;;5.07;;
40945;SDS011;55635;50.264;11.918;2023-02-28T10:51:16;7.00;;;4.57;;
40945;SDS011;55635;50.264;11.918;2023-02-28T10:53:59;8.15;;;4.95;;
40945;SDS011;55635;50.264;11.918;2023-02-28T10:56:40;7.68;;;5.05;;
40945;SDS011;55635;50.264;11.918;2023-02-28T10:59:28;7.13;;;4.75;;
40945;SDS011;55635;50.264;11.918;2023-02-28T11:02:31;6.18;;;4.38;;
40945;SDS011;55635;50.264;11.918;2023-02-28T11:08:16;10.50;;;6.40;;
40945;SDS011;55635;50.264;11.918;2023-02-28T11:10:58;6.93;;;4.72;;
40945;SDS011;55635;50.264;11.918;2023-02-28T11:13:46;12.05;;;5.53;;
40945;SDS011;55635;50.264;11.918;2023-02-28T11:16:32;6.32;;;4.55;;
40945;SDS011;55635;50.264;11.918;2023-02-28T11:19:24;6.10;;;4.45;;
40945;SDS011;55635;50.264;11.918;2023-02-28T11:22:20;7.03;;;4.75;;
40945;SDS011;55635;50.264;11.918;2023-02-28T11:25:09;10.52;;;6.35;;
40945;SDS011;55635;50.264;11.918;2023-02-28T11:28:04;8.73;;;5.60;;
40945;SDS011;55635;50.264;11.918;2023-02-28T11:33:59;6.50;;;4.30;;
40945;SDS011;55635;50.264;11.918;2023-02-28T11:36:40;7.22;;;5.20;;
40945;SDS011;55635;50.264;11.918;2023-02-28T11:39:25;6.75;;;4.97;;
40945;SDS011;55635;50.264;11.918;2023-02-28T11:46:04;17.98;;;11.55;;
40945;SDS011;55635;50.264;11.918;2023-02-28T11:52:01;7.75;;;4.85;;
40945;SDS011;55635;50.264;11.918;2023-02-28T11:54:52;9.70;;;6.05;;
40945;SDS011;55635;50.264;11.918;2023-02-28T12:07:24;8.88;;;5.78;;
40945;SDS011;55635;50.264;11.918;2023-02-28T12:13:21;10.95;;;6.82;;
40945;SDS011;55635;50.264;11.918;2023-02-28T12:23:24;10.40;;;6.75;;
40945;SDS011;55635;50.264;11.918;2023-02-28T12:26:45;10.45;;;6.03;;
40945;SDS011;55635;50.264;11.918;2023-02-28T12:29:30;8.20;;;5.65;;
40945;SDS011;55635;50.264;11.918;2023-02-28T12:32:42;8.70;;;5.85;;
40945;SDS011;55635;50.264;11.918;2023-02-28T12:35:26;6.10;;;5.45;;
40945;SDS011;55635;50.264;11.918;2023-02-28T12:38:19;8.20;;;5.43;;
40945;SDS011;55635;50.264;11.918;2023-02-28T12:41:05;6.82;;;6.13;;
40945;SDS011;55635;50.264;11.918;2023-02-28T12:47:19;9.10;;;5.95;;
40945;SDS011;55635;50.264;11.918;2023-02-28T12:50:07;8.88;;;6.30;;
40945;SDS011;55635;50.264;11.918;2023-02-28T12:56:37;12.55;;;6.10;;
40945;SDS011;55635;50.264;11.918;2023-02-28T13:17:13;7.45;;;5.40;;
40945;SDS011;55635;50.264;11.918;2023-02-28T13:23:00;6.80;;;5.38;;
40945;SDS011;55635;50.264;11.918;2023-02-28T13:28:56;6.80;;;5.72;;
40945;SDS011;55635;50.264;11.918;2023-02-28T13:31:43;8.98;;;5.70;;
40945;SDS011;55635;50.264;11.918;2023-02-28T13:37:32;7.60;;;5.53;;
40945;SDS011;55635;50.264;11.918;2023-02-28T13:40:29;7.68;;;6.13;;
40945;SDS011;55635;50.264;11.918;2023-02-28T13:43:18;6.13;;;5.53;;
40945;SDS011;55635;50.264;11.918;2023-02-28T13:46:09;7.60;;;5.72;;
40945;SDS011;55635;50.264;11.918;2023-02-28T13:48:52;7.65;;;5.47;;
40945;SDS011;55635;50.264;11.918;2023-02-28T14:07:43;8.85;;;6.72;;
40945;SDS011;55635;50.264;11.918;2023-02-28T14:10:32;7.13;;;6.28;;
40945;SDS011;55635;50.264;11.918;2023-02-28T14:13:42;7.30;;;5.88;;
40945;SDS011;55635;50.264;11.918;2023-02-28T14:16:28;7.95;;;7.07;;
40945;SDS011;55635;50.264;11.918;2023-02-28T14:19:29;13.05;;;8.65;;
40945;SDS011;55635;50.264;11.918;2023-02-28T14:38:00;10.32;;;7.55;;
40945;SDS011;55635;50.264;11.918;2023-02-28T14:40:47;8.50;;;7.07;;
40945;SDS011;55635;50.264;11.918;2023-02-28T14:43:32;9.68;;;7.68;;
40945;SDS011;55635;50.264;11.918;2023-02-28T14:46:12;12.23;;;8.30;;
40945;SDS011;55635;50.264;11.918;2023-02-28T14:48:54;14.30;;;9.00;;
40945;SDS011;55635;50.264;11.918;2023-02-28T14:51:35;11.50;;;7.80;;
40945;SDS011;55635;50.264;11.918;2023-02-28T14:54:18;14.98;;;9.05;;
40945;SDS011;55635;50.264;11.918;2023-02-28T14:57:04;11.38;;;8.60;;
40945;SDS011;55635;50.264;11.918;2023-02-28T14:59:45;15.73;;;9.88;;
40945;SDS011;55635;50.264;11.918;2023-02-28T15:02:30;12.63;;;8.52;;
40945;SDS011;55635;50.264;11.918;2023-02-28T15:05:27;15.63;;;9.95;;
40945;SDS011;55635;50.264;11.918;2023-02-28T15:08:16;26.00;;;12.85;;
40945;SDS011;55635;50.264;11.918;2023-02-28T15:16:34;12.93;;;8.93;;
40945;SDS011;55635;50.264;11.918;2023-02-28T15:19:26;15.07;;;10.02;;
40945;SDS011;55635;50.264;11.918;2023-02-28T15:22:12;16.83;;;9.85;;
40945;SDS011;55635;50.264;11.918;2023-02-28T15:25:10;13.85;;;9.75;;
40945;SDS011;55635;50.264;11.918;2023-02-28T15:27:57;13.35;;;8.90;;
40945;SDS011;55635;50.264;11.918;2023-02-28T15:30:38;14.82;;;8.30;;
40945;SDS011;55635;50.264;11.918;2023-02-28T15:33:30;11.45;;;8.65;;
40945;SDS011;55635;50.264;11.918;2023-02-28T15:36:14;13.88;;;9.07;;
40945;SDS011;55635;50.264;11.918;2023-02-28T15:39:00;10.30;;;8.60;;
40945;SDS011;55635;50.264;11.918;2023-02-28T15:41:42;11.93;;;8.45;;
40945;SDS011;55635;50.264;11.918;2023-02-28T15:47:12;13.32;;;8.75;;
40945;SDS011;55635;50.264;11.918;2023-02-28T15:50:02;15.45;;;8.85;;
40945;SDS011;55635;50.264;11.918;2023-02-28T15:52:50;23.58;;;11.20;;
40945;SDS011;55635;50.264;11.918;2023-02-28T15:55:32;14.82;;;9.95;;
40945;SDS011;55635;50.264;11.918;2023-02-28T15:58:13;36.25;;;17.27;;
40945;SDS011;55635;50.264;11.918;2023-02-28T16:01:06;12.90;;;9.07;;
40945;SDS011;55635;50.264;11.918;2023-02-28T16:04:20;24.58;;;12.30;;
40945;SDS011;55635;50.264;11.918;2023-02-28T16:07:04;20.42;;;10.60;;
40945;SDS011;55635;50.264;11.918;2023-02-28T16:09:52;19.48;;;10.57;;
40945;SDS011;55635;50.264;11.918;2023-02-28T16:12:34;20.85;;;10.95;;
40945;SDS011;55635;50.264;11.918;2023-02-28T16:15:22;24.05;;;12.38;;
40945;SDS011;55635;50.264;11.918;2023-02-28T16:18:07;18.90;;;11.85;;
40945;SDS011;55635;50.264;11.918;2023-02-28T16:20:52;18.23;;;10.65;;
40945;SDS011;55635;50.264;11.918;2023-02-28T16:23:33;15.07;;;10.63;;
40945;SDS011;55635;50.264;11.918;2023-02-28T16:26:23;16.42;;;11.23;;
40945;SDS011;55635;50.264;11.918;2023-02-28T16:29:08;13.82;;;10.45;;
40945;SDS011;55635;50.264;11.918;2023-02-28T16:31:53;17.20;;;10.82;;
40945;SDS011;55635;50.264;11.918;2023-02-28T16:34:34;19.15;;;12.60;;
40945;SDS011;55635;50.264;11.918;2023-02-28T16:37:17;17.85;;;11.80;;
40945;SDS011;55635;50.264;11.918;2023-02-28T16:39:58;15.95;;;10.85;;
40945;SDS011;55635;50.264;11.918;2023-02-28T16:42:39;19.05;;;11.15;;
40945;SDS011;55635;50.264;11.918;2023-02-28T16:45:22;19.45;;;12.30;;
40945;SDS011;55635;50.264;11.918;2023-02-28T16:48:12;21.55;;;11.05;;
40945;SDS011;55635;50.264;11.918;2023-02-28T16:50:56;17.70;;;11.52;;
40945;SDS011;55635;50.264;11.918;2023-02-28T16:53:37;19.02;;;11.52;;
40945;SDS011;55635;50.264;11.918;2023-02-28T16:56:19;21.08;;;12.45;;
40945;SDS011;55635;50.264;11.918;2023-02-28T16:59:03;22.83;;;13.23;;
40945;SDS011;55635;50.264;11.918;2023-02-28T17:01:44;21.10;;;12.10;;
40945;SDS011;55635;50.264;11.918;2023-02-28T17:04:26;20.13;;;11.70;;
40945;SDS011;55635;50.264;11.918;2023-02-28T17:07:11;18.10;;;11.63;;
40945;SDS011;55635;50.264;11.918;2023-02-28T17:09:55;19.05;;;11.07;;
40945;SDS011;55635;50.264;11.918;2023-02-28T17:12:37;20.35;;;11.50;;
40945;SDS011;55635;50.264;11.918;2023-02-28T17:15:18;22.10;;;12.80;;
40945;SDS011;55635;50.264;11.918;2023-02-28T17:18:00;22.52;;;13.55;;
40945;SDS011;55635;50.264;11.918;2023-02-28T17:20:41;19.42;;;11.82;;
40945;SDS011;55635;50.264;11.918;2023-02-28T17:23:23;21.15;;;12.10;;
40945;SDS011;55635;50.264;11.918;2023-02-28T17:26:04;19.73;;;12.40;;
40945;SDS011;55635;50.264;11.918;2023-02-28T17:28:50;20.88;;;12.15;;
40945;SDS011;55635;50.264;11.918;2023-02-28T17:31:34;20.45;;;12.35;;
40945;SDS011;55635;50.264;11.918;2023-02-28T17:34:18;21.23;;;12.32;;
40945;SDS011;55635;50.264;11.918;2023-02-28T17:37:00;19.80;;;12.68;;
40945;SDS011;55635;50.264;11.918;2023-02-28T17:39:41;20.67;;;11.55;;
40945;SDS011;55635;50.264;11.918;2023-02-28T17:42:22;22.85;;;12.35;;
40945;SDS011;55635;50.264;11.918;2023-02-28T17:45:03;23.48;;;12.77;;
40945;SDS011;55635;50.264;11.918;2023-02-28T17:47:47;21.73;;;12.13;;
40945;SDS011;55635;50.264;11.918;2023-02-28T17:50:33;23.02;;;12.98;;
40945;SDS011;55635;50.264;11.918;2023-02-28T17:53:14;21.63;;;12.95;;
40945;SDS011;55635;50.264;11.918;2023-02-28T17:55:56;19.52;;;11.93;;
40945;SDS011;55635;50.264;11.918;2023-02-28T17:58:37;19.95;;;12.23;;
40945;SDS011;55635;50.264;11.918;2023-02-28T18:01:18;20.95;;;12.05;;
40945;SDS011;55635;50.264;11.918;2023-02-28T18:04:00;20.30;;;12.55;;
40945;SDS011;55635;50.264;11.918;2023-02-28T18:06:41;21.23;;;12.73;;
40945;SDS011;55635;50.264;11.918;2023-02-28T18:09:29;22.63;;;12.95;;
40945;SDS011;55635;50.264;11.918;2023-02-28T18:12:11;20.85;;;12.48;;
40945;SDS011;55635;50.264;11.918;2023-02-28T18:14:55;19.63;;;12.00;;
40945;SDS011;55635;50.264;11.918;2023-02-28T18:17:37;19.90;;;12.18;;
40945;SDS011;55635;50.264;11.918;2023-02-28T18:20:18;19.45;;;12.10;;
40945;SDS011;55635;50.264;11.918;2023-02-28T18:22:59;21.92;;;13.73;;
40945;SDS011;55635;50.264;11.918;2023-02-28T18:25:41;23.98;;;12.98;;
40945;SDS011;55635;50.264;11.918;2023-02-28T18:28:23;25.52;;;13.43;;
40945;SDS011;55635;50.264;11.918;2023-02-28T18:31:05;21.95;;;12.18;;
40945;SDS011;55635;50.264;11.918;2023-02-28T18:33:49;21.65;;;12.75;;
40945;SDS011;55635;50.264;11.918;2023-02-28T18:36:32;22.45;;;12.43;;
40945;SDS011;55635;50.264;11.918;2023-02-28T18:39:14;24.73;;;11.95;;
40945;SDS011;55635;50.264;11.918;2023-02-28T18:41:55;21.75;;;12.52;;
40945;SDS011;55635;50.264;11.918;2023-02-28T18:44:36;22.27;;;12.90;;
40945;SDS011;55635;50.264;11.918;2023-02-28T18:47:17;23.83;;;12.68;;
40945;SDS011;55635;50.264;11.918;2023-02-28T18:49:59;22.35;;;12.10;;
40945;SDS011;55635;50.264;11.918;2023-02-28T18:52:40;23.10;;;13.68;;
40945;SDS011;55635;50.264;11.918;2023-02-28T18:55:21;24.48;;;13.05;;